KWP weather

West Point Village Seaplane Base
West Point, Alaska, United States

Public forecast

Using degrees Fahrenheit for public forecast. Weather courtesy of forecast.io.

METAR (pilot weather report)

Closest report is Kodiak Airport, 33.8 nm (62.6 km) E. Retrieved 2019/07/21 07:53 UTC (28 minutes ago):

PADQ 210753Z AUTO 00000KT 10SM OVC050 15/13 A3014

TAF (pilot weather forecast)

Closest forecast is Kodiak Airport, 33.8 nm (62.6 km) E. Retrieved 2019/07/21 06:40 UTC (2 hours ago):

TAF PADQ 210538Z 2106/2206 12005KT P6SM BKN040 FM212100 07005KT P6SM BKN030